Time;durP1;ratioP1;P1;durP2;ratioP2;P2;SDS_P1;SDS_P2;PMS_P1;PMS_P2;Temp;Humidity;BMP_temperature;BMP_pressure;BME280_temperature;BME280_humidity;BME280_pressure;Samples;Min_cycle;Max_cycle;Signal;HPM_P1;HPM_P2
2024/01/26 00:02:04;;;;;;;80.03;20.55;;;6.70;99.90;;;;;;4939383;29;20031;-71
2024/01/26 00:04:30;;;;;;;91.57;20.95;;;6.70;99.90;;;;;;4938569;28;20031;-71
2024/01/26 00:06:56;;;;;;;74.57;19.25;;;6.70;99.90;;;;;;4954960;28;20043;-71
2024/01/26 00:09:21;;;;;;;83.60;19.60;;;6.80;99.90;;;;;;4954532;28;20019;-72
2024/01/26 00:11:47;;;;;;;89.38;22.00;;;6.70;99.90;;;;;;4954956;28;20027;-72
2024/01/26 00:14:12;;;;;;;91.28;19.63;;;6.70;99.90;;;;;;4955334;28;20039;-71
2024/01/26 00:16:39;;;;;;;86.75;21.08;;;6.70;99.90;;;;;;4938471;29;20115;-73
2024/01/26 00:19:05;;;;;;;86.45;21.63;;;6.70;99.90;;;;;;4955590;29;20101;-72
2024/01/26 00:21:31;;;;;;;80.82;20.02;;;6.70;99.90;;;;;;4955164;28;20056;-72
2024/01/26 00:23:57;;;;;;;95.05;22.65;;;6.70;99.90;;;;;;4954911;28;20032;-72
2024/01/26 00:26:23;;;;;;;82.50;20.98;;;6.70;99.90;;;;;;4954867;29;20028;-71
2024/01/26 00:28:48;;;;;;;94.05;22.73;;;6.70;99.90;;;;;;4956018;28;20064;-72
2024/01/26 00:31:18;;;;;;;104.47;23.92;;;6.70;99.90;;;;;;4938747;29;20052;-71
2024/01/26 00:33:45;;;;;;;83.65;23.30;;;6.80;99.90;;;;;;4936360;29;20062;-72
2024/01/26 00:36:11;;;;;;;91.50;22.30;;;6.80;99.90;;;;;;4953805;28;20046;-71
2024/01/26 00:38:36;;;;;;;92.07;22.15;;;6.80;99.90;;;;;;4937917;29;20031;-72
2024/01/26 00:41:02;;;;;;;96.85;22.75;;;6.80;99.90;;;;;;4937345;29;20029;-72
2024/01/26 00:43:28;;;;;;;96.28;23.33;;;6.80;99.90;;;;;;4953432;28;20522;-72
2024/01/26 00:45:53;;;;;;;91.43;22.65;;;6.80;99.90;;;;;;4955008;28;20027;-71
2024/01/26 00:48:20;;;;;;;85.43;22.85;;;6.80;99.90;;;;;;4954505;28;20030;-73
2024/01/26 00:50:46;;;;;;;92.95;23.88;;;6.80;99.90;;;;;;4955006;28;20023;-72
2024/01/26 00:53:12;;;;;;;89.22;23.50;;;6.80;99.90;;;;;;4954669;28;20094;-72
2024/01/26 00:55:38;;;;;;;82.80;22.42;;;6.80;99.90;;;;;;4954569;29;20023;-71
2024/01/26 00:58:03;;;;;;;98.03;25.00;;;6.80;99.90;;;;;;4953736;28;20027;-71
2024/01/26 01:00:29;;;;;;;89.63;24.60;;;6.80;99.90;;;;;;4954582;28;20023;-72
2024/01/26 01:02:55;;;;;;;109.57;25.13;;;6.80;99.90;;;;;;4952974;28;20039;-71
2024/01/26 01:05:20;;;;;;;89.65;23.00;;;6.90;99.90;;;;;;4954615;28;20030;-72
2024/01/26 01:07:46;;;;;;;117.75;24.40;;;6.90;99.90;;;;;;4954988;29;20050;-72
2024/01/26 01:10:13;;;;;;;98.90;24.33;;;6.90;99.90;;;;;;4953889;29;20047;-72
2024/01/26 01:12:40;;;;;;;92.80;24.30;;;6.90;99.90;;;;;;4954589;29;20110;-72
2024/01/26 01:15:11;;;;;;;93.75;23.98;;;6.90;99.90;;;;;;4953752;29;20038;-72
2024/01/26 01:17:41;;;;;;;90.60;24.27;;;6.90;99.90;;;;;;4954502;28;20034;-72
2024/01/26 01:20:10;;;;;;;89.78;23.90;;;6.90;99.90;;;;;;4954231;29;20099;-72
2024/01/26 01:22:37;;;;;;;104.20;25.55;;;6.90;99.90;;;;;;4954432;28;20050;-72
2024/01/26 01:25:04;;;;;;;100.10;24.77;;;7.00;99.90;;;;;;4954088;28;20023;-72
2024/01/26 01:27:31;;;;;;;106.40;24.85;;;6.90;99.90;;;;;;4954332;28;20030;-72
2024/01/26 01:29:57;;;;;;;96.95;25.25;;;7.00;99.90;;;;;;4953881;29;20023;-72
2024/01/26 01:32:23;;;;;;;104.43;25.50;;;6.90;99.90;;;;;;4954300;28;20035;-72
2024/01/26 01:34:48;;;;;;;92.53;24.25;;;7.00;99.90;;;;;;4954115;28;20062;-72
2024/01/26 01:37:14;;;;;;;95.60;24.75;;;7.00;99.90;;;;;;4953748;28;20040;-72
2024/01/26 01:39:39;;;;;;;95.03;24.65;;;7.00;99.90;;;;;;4952441;29;20045;-72
2024/01/26 01:42:05;;;;;;;87.53;23.23;;;7.00;99.90;;;;;;4937062;29;20023;-72
2024/01/26 01:44:30;;;;;;;93.22;24.85;;;7.00;99.90;;;;;;4936488;28;20034;-72
2024/01/26 01:46:56;;;;;;;90.95;24.20;;;7.10;99.90;;;;;;4954138;28;20706;-72
2024/01/26 01:49:22;;;;;;;82.97;23.05;;;7.10;99.90;;;;;;4953869;28;20019;-72
2024/01/26 01:51:52;;;;;;;94.85;25.25;;;7.10;99.90;;;;;;4953772;28;20027;-72
2024/01/26 01:54:19;;;;;;;75.50;22.48;;;7.10;99.90;;;;;;4954101;28;20036;-72
2024/01/26 01:56:46;;;;;;;74.13;22.13;;;7.10;99.90;;;;;;4952675;29;20023;-72
2024/01/26 01:59:12;;;;;;;81.43;24.45;;;7.10;99.90;;;;;;4953699;28;20024;-72
2024/01/26 02:01:37;;;;;;;82.60;25.48;;;7.10;99.90;;;;;;4932790;29;20046;-72
2024/01/26 02:04:04;;;;;;;82.78;22.75;;;7.10;99.90;;;;;;4954040;29;20035;-71
2024/01/26 02:06:30;;;;;;;92.93;25.60;;;7.10;99.90;;;;;;4953448;28;20016;-72
2024/01/26 02:08:56;;;;;;;83.68;24.92;;;7.10;99.90;;;;;;4953722;28;20075;-71
2024/01/26 02:11:23;;;;;;;86.68;26.00;;;7.10;99.90;;;;;;4953459;29;20015;-72
2024/01/26 02:13:48;;;;;;;77.35;25.52;;;7.20;99.90;;;;;;4953637;28;20040;-71
2024/01/26 02:16:14;;;;;;;93.88;27.40;;;7.20;99.90;;;;;;4953497;29;20404;-72
2024/01/26 02:18:39;;;;;;;82.93;24.95;;;7.20;99.90;;;;;;4936332;29;20477;-71
2024/01/26 02:21:05;;;;;;;94.20;25.90;;;7.20;99.90;;;;;;4953656;28;20038;-73
2024/01/26 02:23:30;;;;;;;91.65;26.27;;;7.20;99.90;;;;;;4951680;28;20038;-71
2024/01/26 02:25:56;;;;;;;93.18;27.50;;;7.20;99.90;;;;;;4953361;28;20043;-72
2024/01/26 02:28:23;;;;;;;88.68;25.25;;;7.30;99.90;;;;;;4936537;29;20023;-72
2024/01/26 02:30:48;;;;;;;101.03;26.13;;;7.30;99.90;;;;;;4953179;28;20028;-73
2024/01/26 02:33:14;;;;;;;99.22;28.77;;;7.30;99.90;;;;;;4937084;29;20177;-72
2024/01/26 02:35:40;;;;;;;92.85;27.77;;;7.30;99.90;;;;;;4957248;28;20023;-72
2024/01/26 02:38:05;;;;;;;94.78;28.33;;;7.30;99.90;;;;;;4957573;29;20103;-73
2024/01/26 02:40:31;;;;;;;84.97;26.05;;;7.30;99.90;;;;;;4956987;28;20087;-72
2024/01/26 02:42:56;;;;;;;94.85;28.23;;;7.30;99.90;;;;;;4957932;28;20058;-72
2024/01/26 02:45:25;;;;;;;99.28;29.17;;;7.30;99.90;;;;;;4957596;29;20054;-72
2024/01/26 02:47:50;;;;;;;102.07;27.52;;;7.30;99.90;;;;;;4956600;29;20023;-72
2024/01/26 02:50:16;;;;;;;88.85;27.23;;;7.30;99.90;;;;;;4955795;29;20039;-72
2024/01/26 02:52:41;;;;;;;92.13;27.40;;;7.40;99.90;;;;;;4956840;28;20552;-72
2024/01/26 02:55:07;;;;;;;101.25;28.70;;;7.40;99.90;;;;;;4956596;29;20029;-72
2024/01/26 02:57:32;;;;;;;90.40;28.67;;;7.40;99.90;;;;;;4957251;29;20038;-71
2024/01/26 02:59:58;;;;;;;109.32;29.85;;;7.40;99.90;;;;;;4956552;28;20105;-72
2024/01/26 03:02:23;;;;;;;97.15;29.58;;;7.40;99.90;;;;;;4956289;28;20028;-71
2024/01/26 03:04:49;;;;;;;111.22;30.98;;;7.40;99.90;;;;;;4956694;28;20024;-71
2024/01/26 03:07:14;;;;;;;102.38;32.10;;;7.50;99.90;;;;;;4956090;28;20060;-72
2024/01/26 03:09:40;;;;;;;106.93;29.98;;;7.50;99.90;;;;;;4939317;28;20481;-74
2024/01/26 03:12:06;;;;;;;109.25;33.40;;;7.50;99.90;;;;;;4939381;29;20023;-72
2024/01/26 03:14:31;;;;;;;119.40;31.73;;;7.50;99.90;;;;;;4956126;29;20472;-72
2024/01/26 03:16:57;;;;;;;115.28;30.80;;;7.60;99.90;;;;;;4956554;29;20027;-71
2024/01/26 03:19:22;;;;;;;113.70;32.03;;;7.60;99.90;;;;;;4956359;29;20036;-71
2024/01/26 03:21:48;;;;;;;127.50;33.47;;;7.60;99.90;;;;;;4956004;29;20039;-72
2024/01/26 03:24:14;;;;;;;107.88;31.75;;;7.60;99.90;;;;;;4958109;28;20083;-72
2024/01/26 03:26:40;;;;;;;123.88;35.42;;;7.70;99.90;;;;;;4956602;28;20042;-72
2024/01/26 03:29:06;;;;;;;111.45;32.88;;;7.70;99.90;;;;;;4955615;28;20035;-72
2024/01/26 03:31:32;;;;;;;125.72;35.88;;;7.70;99.90;;;;;;4954371;28;20028;-73
2024/01/26 03:33:57;;;;;;;132.02;35.80;;;7.70;99.90;;;;;;4956484;28;20055;-72
2024/01/26 03:36:23;;;;;;;131.45;36.33;;;7.70;99.90;;;;;;4955671;28;20038;-73
2024/01/26 03:38:49;;;;;;;132.18;36.63;;;7.80;99.90;;;;;;4938953;29;20114;-73
2024/01/26 03:41:15;;;;;;;138.32;37.45;;;7.80;99.90;;;;;;4956037;28;20448;-73
2024/01/26 03:43:40;;;;;;;140.48;38.17;;;7.70;99.90;;;;;;4954949;28;20044;-72
2024/01/26 03:46:06;;;;;;;121.88;35.80;;;7.80;99.90;;;;;;4955543;29;20115;-73
2024/01/26 03:48:32;;;;;;;126.82;37.90;;;7.80;99.90;;;;;;4955973;28;20047;-72
2024/01/26 03:50:58;;;;;;;137.18;36.53;;;7.80;99.90;;;;;;4955140;28;20042;-72
2024/01/26 03:53:24;;;;;;;117.35;34.38;;;7.80;99.90;;;;;;4955630;28;20046;-72
2024/01/26 03:55:52;;;;;;;126.57;36.28;;;7.90;99.90;;;;;;4938526;29;20027;-72
2024/01/26 03:58:18;;;;;;;125.40;36.05;;;7.80;99.90;;;;;;4955163;28;20031;-73
2024/01/26 04:00:43;;;;;;;123.53;36.55;;;7.90;99.90;;;;;;4955944;28;20034;-73
2024/01/26 04:03:09;;;;;;;123.28;35.95;;;7.90;99.90;;;;;;4938639;29;20034;-72
2024/01/26 04:05:34;;;;;;;118.55;35.08;;;7.90;99.90;;;;;;4955597;28;20056;-72
2024/01/26 04:08:00;;;;;;;107.30;33.13;;;7.90;99.90;;;;;;4952592;28;20047;-73
2024/01/26 04:10:26;;;;;;;94.35;29.73;;;7.90;99.90;;;;;;4938056;29;20134;-72
2024/01/26 04:12:51;;;;;;;100.38;30.77;;;8.00;99.90;;;;;;4955139;28;20043;-73
2024/01/26 04:15:17;;;;;;;100.63;31.80;;;8.00;99.90;;;;;;4955751;28;20480;-72
2024/01/26 04:17:42;;;;;;;102.80;32.80;;;8.00;99.90;;;;;;4954730;28;20127;-73
2024/01/26 04:20:08;;;;;;;90.07;30.63;;;7.90;99.90;;;;;;4955124;28;20024;-72
2024/01/26 04:22:34;;;;;;;93.40;28.90;;;8.00;99.90;;;;;;4955617;28;20388;-73
2024/01/26 04:24:59;;;;;;;96.57;30.45;;;8.00;99.90;;;;;;4955149;28;20083;-72
2024/01/26 04:27:25;;;;;;;85.85;29.33;;;8.00;99.90;;;;;;4954999;29;20024;-73
2024/01/26 04:29:53;;;;;;;86.47;28.42;;;8.00;99.90;;;;;;4955389;28;20361;-73
2024/01/26 04:32:19;;;;;;;86.18;27.73;;;8.00;99.90;;;;;;4936959;29;20097;-73
2024/01/26 04:34:45;;;;;;;87.00;29.17;;;8.00;99.90;;;;;;4954781;28;20039;-72
2024/01/26 04:37:11;;;;;;;87.32;28.48;;;8.00;99.90;;;;;;4955002;29;20119;-71
2024/01/26 04:39:37;;;;;;;80.43;28.20;;;8.00;99.90;;;;;;4954624;28;20023;-72
2024/01/26 04:42:02;;;;;;;91.55;31.20;;;8.00;99.90;;;;;;4937582;29;20081;-72
2024/01/26 04:44:28;;;;;;;81.32;28.35;;;8.10;99.90;;;;;;4935417;29;20684;-73
2024/01/26 04:46:55;;;;;;;88.32;29.23;;;8.10;99.90;;;;;;4936577;29;20082;-75
2024/01/26 04:49:21;;;;;;;98.97;31.92;;;8.00;99.90;;;;;;4955212;28;20016;-74
2024/01/26 04:51:47;;;;;;;93.65;31.75;;;8.10;99.90;;;;;;4955345;28;20107;-74
2024/01/26 04:54:12;;;;;;;91.38;29.88;;;8.10;99.90;;;;;;4937846;28;20079;-76
2024/01/26 04:56:38;;;;;;;96.20;31.75;;;8.10;99.90;;;;;;4933492;29;20035;-74
2024/01/26 04:59:05;;;;;;;84.05;28.83;;;8.10;99.90;;;;;;4933286;29;20027;-74
2024/01/26 05:01:31;;;;;;;86.28;29.98;;;8.10;99.90;;;;;;4934180;29;20039;-74
2024/01/26 05:03:56;;;;;;;90.47;31.98;;;8.10;99.90;;;;;;4934504;29;20046;-73
2024/01/26 05:06:22;;;;;;;84.28;29.00;;;8.20;99.90;;;;;;4953655;28;20039;-73
2024/01/26 05:08:47;;;;;;;81.07;28.23;;;8.20;99.90;;;;;;4935209;29;20063;-75
2024/01/26 05:11:13;;;;;;;99.07;32.17;;;8.20;99.90;;;;;;4937871;29;20019;-74
2024/01/26 05:13:39;;;;;;;93.60;30.98;;;8.20;99.90;;;;;;4954728;29;20039;-74
2024/01/26 05:16:04;;;;;;;100.75;34.72;;;8.20;99.90;;;;;;4952857;28;20039;-74
2024/01/26 05:18:30;;;;;;;92.43;32.22;;;8.20;99.90;;;;;;4950855;28;20061;-74
2024/01/26 05:20:56;;;;;;;92.50;32.42;;;8.30;99.90;;;;;;4936804;29;20480;-75
2024/01/26 05:23:21;;;;;;;99.03;33.88;;;8.30;99.90;;;;;;4954526;29;20027;-76
2024/01/26 05:25:48;;;;;;;93.25;31.88;;;8.30;99.90;;;;;;4953876;28;20514;-74
2024/01/26 05:28:14;;;;;;;95.60;32.83;;;8.30;99.90;;;;;;4949758;28;20162;-74
2024/01/26 05:30:39;;;;;;;92.13;32.00;;;8.30;99.90;;;;;;4933970;29;20506;-75
2024/01/26 05:33:05;;;;;;;99.97;32.72;;;8.30;99.90;;;;;;4952401;28;20043;-74
2024/01/26 05:35:31;;;;;;;89.50;31.98;;;8.40;99.90;;;;;;4949760;29;20038;-74
2024/01/26 05:37:56;;;;;;;103.68;34.22;;;8.40;99.90;;;;;;4954323;28;20027;-75
2024/01/26 05:40:22;;;;;;;98.57;31.80;;;8.40;99.90;;;;;;4954735;29;20039;-74
2024/01/26 05:42:47;;;;;;;95.88;33.58;;;8.40;99.90;;;;;;4937283;29;20039;-75
2024/01/26 05:45:15;;;;;;;86.03;30.40;;;8.50;99.90;;;;;;4954096;28;20031;-74
2024/01/26 05:47:41;;;;;;;90.45;31.85;;;8.60;99.90;;;;;;4954016;28;20032;-74
2024/01/26 05:50:07;;;;;;;99.50;33.63;;;8.50;99.90;;;;;;4954191;28;20028;-74
2024/01/26 05:52:32;;;;;;;86.78;33.83;;;8.50;99.90;;;;;;4953789;28;20023;-73
2024/01/26 05:54:58;;;;;;;86.95;30.30;;;8.50;99.90;;;;;;4954243;28;20047;-75
2024/01/26 05:57:24;;;;;;;94.30;32.50;;;8.60;99.90;;;;;;4937700;29;20028;-74
2024/01/26 05:59:49;;;;;;;82.93;30.73;;;8.60;99.90;;;;;;4936724;29;20604;-75
2024/01/26 06:02:15;;;;;;;95.22;34.13;;;8.60;99.90;;;;;;4954596;29;20071;-75
2024/01/26 06:04:40;;;;;;;88.43;32.45;;;8.60;99.90;;;;;;4954432;28;20032;-75
2024/01/26 06:07:06;;;;;;;81.05;31.10;;;8.60;99.90;;;;;;4955267;28;20038;-76
2024/01/26 06:09:32;;;;;;;75.53;28.15;;;8.60;99.90;;;;;;4956382;28;20031;-74
2024/01/26 06:11:58;;;;;;;81.05;29.85;;;8.70;99.90;;;;;;4957821;29;20082;-76
2024/01/26 06:14:23;;;;;;;88.45;33.55;;;8.70;99.90;;;;;;4936794;29;20570;-74
2024/01/26 06:16:49;;;;;;;77.35;27.63;;;8.70;99.90;;;;;;4941172;29;20082;-74
2024/01/26 06:19:15;;;;;;;78.40;30.75;;;8.70;99.90;;;;;;4938300;28;20051;-74
2024/01/26 06:21:41;;;;;;;78.15;31.73;;;8.80;99.90;;;;;;4955602;28;20049;-76
2024/01/26 06:24:07;;;;;;;87.80;33.80;;;8.80;99.90;;;;;;4958176;28;20458;-75
2024/01/26 06:26:32;;;;;;;80.80;32.22;;;8.80;99.90;;;;;;4957259;29;20114;-74
2024/01/26 06:28:58;;;;;;;81.07;31.23;;;8.80;99.90;;;;;;4958138;28;20117;-73
2024/01/26 06:31:26;;;;;;;85.60;32.95;;;8.90;99.90;;;;;;4939651;29;20106;-73
2024/01/26 06:33:52;;;;;;;90.32;31.40;;;8.90;99.90;;;;;;4937825;29;20037;-73
2024/01/26 06:36:18;;;;;;;90.60;33.22;;;8.90;99.90;;;;;;4955677;29;20023;-74
2024/01/26 06:38:44;;;;;;;76.30;27.85;;;9.00;99.90;;;;;;4955984;28;20034;-74
2024/01/26 06:41:09;;;;;;;99.78;36.00;;;9.00;99.90;;;;;;4955451;28;20047;-74
2024/01/26 06:43:35;;;;;;;85.50;32.90;;;9.00;99.90;;;;;;4955277;29;20078;-74
2024/01/26 06:46:00;;;;;;;87.50;34.55;;;9.10;99.90;;;;;;4938703;28;20551;-74
2024/01/26 06:48:26;;;;;;;84.00;30.95;;;9.10;99.90;;;;;;4937568;29;21082;-73
2024/01/26 06:50:52;;;;;;;79.10;32.95;;;9.10;99.90;;;;;;4955658;28;20108;-75
2024/01/26 06:53:18;;;;;;;83.55;32.17;;;9.20;99.90;;;;;;4955444;28;20524;-74
2024/01/26 06:55:45;;;;;;;79.38;31.58;;;9.20;99.90;;;;;;4937865;29;20048;-75
2024/01/26 06:58:10;;;;;;;79.28;32.22;;;9.20;99.90;;;;;;4955811;28;20028;-74
2024/01/26 07:00:36;;;;;;;74.53;31.25;;;9.30;99.90;;;;;;4957217;28;20485;-76
2024/01/26 07:03:02;;;;;;;68.53;29.52;;;9.30;99.90;;;;;;4940364;29;20042;-75
2024/01/26 07:05:27;;;;;;;69.90;27.63;;;9.30;99.90;;;;;;4956973;28;20042;-75
2024/01/26 07:07:54;;;;;;;77.22;30.63;;;9.30;99.90;;;;;;4956651;28;20051;-73
2024/01/26 07:10:20;;;;;;;72.90;30.98;;;9.30;99.90;;;;;;4939903;29;20481;-75
2024/01/26 07:12:45;;;;;;;61.92;27.73;;;9.30;99.90;;;;;;4957169;28;20042;-74
2024/01/26 07:15:11;;;;;;;56.13;26.15;;;9.30;99.90;;;;;;4956166;28;20024;-74
2024/01/26 07:17:36;;;;;;;60.97;26.92;;;9.40;99.90;;;;;;4941082;29;20025;-75
2024/01/26 07:20:03;;;;;;;64.38;28.17;;;9.40;99.90;;;;;;4956823;29;20030;-74
2024/01/26 07:22:29;;;;;;;64.00;27.58;;;9.40;99.90;;;;;;4956786;28;20023;-74
2024/01/26 07:24:56;;;;;;;61.08;25.30;;;9.40;99.90;;;;;;4957382;28;20044;-73
2024/01/26 07:27:21;;;;;;;66.40;28.48;;;9.40;99.90;;;;;;4957154;28;20026;-75
2024/01/26 07:29:47;;;;;;;60.05;25.80;;;9.50;99.90;;;;;;4956731;28;20027;-73
2024/01/26 07:32:14;;;;;;;69.28;29.27;;;9.50;99.90;;;;;;4956598;28;20384;-75
2024/01/26 07:34:39;;;;;;;69.80;27.90;;;9.50;99.90;;;;;;4955290;29;20043;-74
2024/01/26 07:37:05;;;;;;;62.50;26.92;;;9.50;99.90;;;;;;4953419;29;20042;-74
2024/01/26 07:39:31;;;;;;;70.07;28.15;;;9.50;99.90;;;;;;4938457;29;20042;-75
2024/01/26 07:41:56;;;;;;;70.20;29.15;;;9.50;99.90;;;;;;4955799;28;20134;-75
2024/01/26 07:44:22;;;;;;;64.40;27.50;;;9.60;99.90;;;;;;4939687;29;20023;-74
2024/01/26 07:46:47;;;;;;;65.95;27.90;;;9.60;99.90;;;;;;4955859;28;20027;-73
2024/01/26 07:49:13;;;;;;;63.92;27.55;;;9.60;99.90;;;;;;4955655;28;20117;-76
2024/01/26 07:51:38;;;;;;;54.83;23.38;;;9.60;99.90;;;;;;4955806;28;20020;-77
2024/01/26 07:54:05;;;;;;;49.75;21.75;;;9.60;99.90;;;;;;4937499;29;20074;-76
2024/01/26 07:56:31;;;;;;;61.20;25.00;;;9.70;99.90;;;;;;4954969;28;20078;-78
2024/01/26 07:58:56;;;;;;;69.95;27.83;;;9.70;99.90;;;;;;4953073;28;20039;-73
2024/01/26 08:01:22;;;;;;;65.10;25.40;;;9.70;99.90;;;;;;4954824;28;20036;-75
2024/01/26 08:03:47;;;;;;;68.55;25.80;;;9.70;99.90;;;;;;4954196;28;20122;-73
2024/01/26 08:06:13;;;;;;;67.70;27.30;;;9.70;99.90;;;;;;4954959;29;20031;-76
2024/01/26 08:08:39;;;;;;;69.93;26.40;;;9.70;99.90;;;;;;4938606;29;20065;-73
2024/01/26 08:11:05;;;;;;;93.43;30.48;;;9.70;99.90;;;;;;4939109;29;20044;-72
2024/01/26 08:13:30;;;;;;;87.82;28.10;;;9.60;99.90;;;;;;4954253;28;20081;-74
2024/01/26 08:15:56;;;;;;;91.60;31.20;;;9.60;99.90;;;;;;4956037;28;20031;-73
2024/01/26 08:18:22;;;;;;;86.57;29.88;;;9.60;99.90;;;;;;4953643;29;20082;-74
2024/01/26 08:20:47;;;;;;;84.07;28.92;;;9.60;99.90;;;;;;4937011;29;20034;-74
2024/01/26 08:23:13;;;;;;;105.78;30.92;;;9.60;99.90;;;;;;4952077;28;20047;-74
2024/01/26 08:25:38;;;;;;;104.90;30.23;;;9.60;99.90;;;;;;4954510;29;20040;-72
2024/01/26 08:28:04;;;;;;;76.95;25.77;;;9.50;99.90;;;;;;4934059;29;20031;-73
2024/01/26 08:30:32;;;;;;;97.28;29.50;;;9.50;99.90;;;;;;4936609;29;20028;-74
2024/01/26 08:32:57;;;;;;;81.15;25.27;;;9.50;99.90;;;;;;4950611;28;20588;-72
2024/01/26 08:35:23;;;;;;;80.90;24.58;;;9.50;99.90;;;;;;4952820;28;20042;-71
2024/01/26 08:37:48;;;;;;;77.40;26.63;;;9.50;99.90;;;;;;4953695;28;20035;-73
2024/01/26 08:40:14;;;;;;;68.38;21.83;;;9.50;99.90;;;;;;4954008;28;20106;-74
2024/01/26 08:42:40;;;;;;;64.70;24.92;;;9.50;99.90;;;;;;4937780;29;20103;-74
2024/01/26 08:45:06;;;;;;;64.57;24.55;;;9.60;99.90;;;;;;4954085;29;20027;-74
2024/01/26 08:47:32;;;;;;;55.08;21.95;;;9.50;99.90;;;;;;4955064;28;20026;-73
2024/01/26 08:49:57;;;;;;;69.13;24.05;;;9.50;99.90;;;;;;4954776;28;20062;-72
2024/01/26 08:52:23;;;;;;;57.42;22.55;;;9.60;99.90;;;;;;4955632;28;20020;-73
2024/01/26 08:54:48;;;;;;;68.35;23.67;;;9.60;99.90;;;;;;4953876;29;20050;-72
2024/01/26 08:57:14;;;;;;;72.75;25.83;;;9.60;99.90;;;;;;4938601;29;20031;-72
2024/01/26 08:59:40;;;;;;;76.20;23.85;;;9.60;99.90;;;;;;4955172;28;20019;-72
2024/01/26 09:02:07;;;;;;;85.07;29.08;;;9.60;99.90;;;;;;4955129;28;20027;-71
2024/01/26 09:04:32;;;;;;;100.43;29.77;;;9.60;99.90;;;;;;4955663;28;20051;-73
2024/01/26 09:06:58;;;;;;;75.03;23.23;;;9.60;99.90;;;;;;4954969;28;20031;-74
2024/01/26 09:09:23;;;;;;;73.95;24.80;;;9.60;99.90;;;;;;4953419;28;20028;-73
2024/01/26 09:11:51;;;;;;;78.28;27.25;;;9.70;99.90;;;;;;4955184;29;20029;-75
2024/01/26 09:14:17;;;;;;;77.97;24.85;;;9.70;99.90;;;;;;4935988;29;20090;-72
2024/01/26 09:16:42;;;;;;;70.00;25.25;;;9.70;99.90;;;;;;4937184;29;20034;-73
2024/01/26 09:19:10;;;;;;;61.22;21.02;;;9.70;99.90;;;;;;4953589;28;20031;-75
2024/01/26 09:21:35;;;;;;;59.60;21.55;;;9.70;99.90;;;;;;4954277;29;20469;-76
2024/01/26 09:24:01;;;;;;;71.65;24.90;;;9.80;99.90;;;;;;4936547;29;20031;-72
2024/01/26 09:26:28;;;;;;;62.35;25.27;;;9.80;99.90;;;;;;4950523;28;20086;-72
2024/01/26 09:28:53;;;;;;;62.22;24.98;;;9.80;99.90;;;;;;4935389;28;21446;-74
2024/01/26 09:31:19;;;;;;;59.78;24.33;;;9.80;99.90;;;;;;4954010;29;20113;-72
2024/01/26 09:33:44;;;;;;;60.90;24.08;;;9.80;99.90;;;;;;4954097;28;20508;-73
2024/01/26 09:36:10;;;;;;;57.75;23.55;;;9.80;99.90;;;;;;4936669;29;20020;-74
2024/01/26 09:38:35;;;;;;;56.17;22.00;;;9.70;99.90;;;;;;4933162;29;20027;-74
2024/01/26 09:41:01;;;;;;;56.58;23.50;;;9.80;99.90;;;;;;4944448;28;20019;-74
2024/01/26 09:43:26;;;;;;;45.15;19.55;;;9.80;99.90;;;;;;4945215;28;20028;-72
2024/01/26 09:45:52;;;;;;;46.70;19.77;;;9.80;99.90;;;;;;4931316;29;20034;-72
2024/01/26 09:48:20;;;;;;;48.92;18.10;;;9.90;99.90;;;;;;4953648;29;20019;-72
2024/01/26 09:50:51;;;;;;;48.63;19.52;;;9.90;99.90;;;;;;4936616;29;20034;-74
2024/01/26 09:53:17;;;;;;;27.10;12.68;;;9.90;99.90;;;;;;4936691;28;20035;-74
2024/01/26 09:55:45;;;;;;;48.97;19.52;;;9.90;99.90;;;;;;4936638;29;20133;-73
2024/01/26 09:58:11;;;;;;;35.03;14.52;;;9.90;99.90;;;;;;4953385;29;20036;-72
2024/01/26 10:00:37;;;;;;;43.20;18.55;;;9.90;99.90;;;;;;4938035;29;20035;-70
2024/01/26 10:03:03;;;;;;;39.15;17.35;;;9.90;99.90;;;;;;4954936;28;20043;-71
2024/01/26 10:05:29;;;;;;;40.22;16.83;;;9.90;99.90;;;;;;4954199;28;20040;-73
2024/01/26 10:07:55;;;;;;;43.60;17.33;;;9.90;99.90;;;;;;4952150;28;20058;-70
2024/01/26 10:10:20;;;;;;;38.90;17.33;;;9.90;99.90;;;;;;4954098;28;20031;-71
2024/01/26 10:12:46;;;;;;;37.72;16.77;;;9.90;99.90;;;;;;4954764;28;20023;-69
2024/01/26 10:15:13;;;;;;;31.75;13.15;;;9.90;99.90;;;;;;4954296;29;20032;-72
2024/01/26 10:17:38;;;;;;;36.90;16.70;;;9.90;99.90;;;;;;4954313;28;20043;-72
2024/01/26 10:20:07;;;;;;;33.90;14.35;;;10.00;99.90;;;;;;4937796;29;20027;-72
2024/01/26 10:22:34;;;;;;;34.28;16.10;;;10.00;99.90;;;;;;4937520;29;20687;-70
2024/01/26 10:25:02;;;;;;;29.42;14.55;;;10.00;99.90;;;;;;4951367;28;20119;-70
2024/01/26 10:27:29;;;;;;;21.80;11.13;;;10.00;99.90;;;;;;4952417;28;20039;-72
2024/01/26 10:29:54;;;;;;;28.67;14.40;;;10.10;99.90;;;;;;4937115;28;20024;-70
2024/01/26 10:32:23;;;;;;;22.52;11.45;;;10.10;99.90;;;;;;4953114;28;20042;-73
2024/01/26 10:34:51;;;;;;;25.48;13.18;;;10.10;99.90;;;;;;4953659;28;20496;-70
2024/01/26 10:37:19;;;;;;;26.23;12.80;;;10.10;99.90;;;;;;4936403;28;20078;-69
2024/01/26 10:39:47;;;;;;;26.63;12.85;;;10.20;99.90;;;;;;4953788;28;20020;-73
2024/01/26 10:42:14;;;;;;;28.73;11.77;;;10.20;99.90;;;;;;4953197;28;20111;-72
2024/01/26 10:44:40;;;;;;;22.17;11.07;;;10.20;99.90;;;;;;4953623;29;20023;-72
2024/01/26 10:47:08;;;;;;;21.33;10.98;;;10.20;99.90;;;;;;4952825;28;20115;-71
2024/01/26 10:49:35;;;;;;;19.45;9.38;;;10.20;99.90;;;;;;4937396;28;20031;-72
2024/01/26 10:52:05;;;;;;;18.42;8.60;;;10.20;99.90;;;;;;4935650;29;20035;-71
2024/01/26 10:54:32;;;;;;;22.63;8.10;;;10.30;99.90;;;;;;4937802;29;20085;-74
2024/01/26 10:56:58;;;;;;;15.85;5.72;;;10.30;99.90;;;;;;4940394;29;20034;-73
2024/01/26 10:59:25;;;;;;;3.95;2.30;;;10.40;99.90;;;;;;4957646;28;20024;-72
2024/01/26 11:01:51;;;;;;;7.57;2.55;;;10.30;99.90;;;;;;4957179;28;20019;-73
2024/01/26 11:04:17;;;;;;;4.20;1.90;;;10.10;99.90;;;;;;4939911;28;20039;-72
2024/01/26 11:06:44;;;;;;;1.70;1.13;;;9.90;99.90;;;;;;4956754;28;20035;-73
2024/01/26 11:09:11;;;;;;;7.05;1.20;;;9.70;99.90;;;;;;4936471;29;20052;-75
2024/01/26 11:11:38;;;;;;;4.25;1.35;;;9.70;99.90;;;;;;4938466;29;20088;-72
2024/01/26 11:14:07;;;;;;;3.88;1.10;;;9.70;99.90;;;;;;4936710;29;20040;-71
2024/01/26 11:16:34;;;;;;;2.75;1.20;;;9.70;99.90;;;;;;4936523;29;20039;-72
2024/01/26 11:19:02;;;;;;;6.32;1.40;;;9.70;99.90;;;;;;4936938;29;20027;-72
2024/01/26 11:21:44;;;;;;;6.55;1.17;;;9.70;99.90;;;;;;4936014;29;20036;-73
2024/01/26 11:24:18;;;;;;;7.93;1.33;;;9.60;99.90;;;;;;4937931;29;20039;-74
2024/01/26 11:26:58;;;;;;;6.88;1.42;;;9.50;99.90;;;;;;4936410;29;20402;-74
2024/01/26 11:29:31;;;;;;;8.30;1.20;;;9.40;99.90;;;;;;4936846;29;20044;-75
2024/01/26 11:31:56;;;;;;;12.95;1.67;;;9.30;99.90;;;;;;4933702;29;20115;-73
2024/01/26 11:34:27;;;;;;;13.45;1.98;;;9.20;99.90;;;;;;4936007;29;20776;-73
2024/01/26 11:37:13;;;;;;;12.13;1.63;;;9.10;99.90;;;;;;4931328;29;20035;-74
2024/01/26 11:39:39;;;;;;;11.55;2.05;;;9.00;99.90;;;;;;4931491;29;20036;-72
2024/01/26 11:42:09;;;;;;;10.20;1.20;;;8.90;99.90;;;;;;4935099;29;20095;-74
2024/01/26 11:44:39;;;;;;;15.50;2.15;;;8.80;99.90;;;;;;4936660;29;20041;-72
2024/01/26 11:47:08;;;;;;;18.00;1.80;;;8.70;99.90;;;;;;4936419;29;20019;-72
2024/01/26 11:49:34;;;;;;;12.48;1.50;;;8.60;99.90;;;;;;4936474;29;20027;-73
2024/01/26 11:51:59;;;;;;;14.23;1.83;;;8.50;99.90;;;;;;4937061;29;20024;-73
2024/01/26 11:54:25;;;;;;;15.70;2.20;;;8.50;99.90;;;;;;4936553;29;20052;-73
2024/01/26 11:56:50;;;;;;;15.27;2.33;;;8.40;99.90;;;;;;4935223;29;20099;-73
2024/01/26 11:59:16;;;;;;;19.95;2.30;;;8.40;99.90;;;;;;4935425;29;20389;-77
2024/01/26 12:01:42;;;;;;;21.45;2.33;;;8.40;99.90;;;;;;4934651;29;20054;-72
2024/01/26 12:04:08;;;;;;;21.02;3.78;;;8.40;99.90;;;;;;4934423;29;20035;-75
2024/01/26 12:06:33;;;;;;;19.42;2.50;;;8.50;99.90;;;;;;4932755;29;20044;-75
2024/01/26 12:08:59;;;;;;;20.33;2.40;;;8.60;99.90;;;;;;4952524;28;20055;-73
2024/01/26 12:11:25;;;;;;;18.35;2.28;;;8.60;99.90;;;;;;4936288;29;20028;-77
2024/01/26 12:13:52;;;;;;;14.60;2.65;;;8.60;99.90;;;;;;4955291;28;20507;-75
2024/01/26 12:16:22;;;;;;;24.60;2.80;;;8.60;99.90;;;;;;4935115;28;20034;-77
2024/01/26 12:18:47;;;;;;;22.25;2.58;;;8.60;99.90;;;;;;4938466;28;20066;-73
2024/01/26 12:21:14;;;;;;;25.02;3.08;;;8.60;99.90;;;;;;4954301;28;20031;-75
2024/01/26 12:23:39;;;;;;;21.40;2.40;;;8.60;99.90;;;;;;4954806;29;20027;-75
2024/01/26 12:26:11;;;;;;;13.95;2.17;;;8.60;99.90;;;;;;4955374;29;20030;-77
2024/01/26 12:28:37;;;;;;;17.85;2.92;;;8.60;99.90;;;;;;4937390;29;20504;-76
2024/01/26 12:31:03;;;;;;;20.10;2.53;;;8.60;99.90;;;;;;4940746;28;20023;-75